sensor_id;sensor_type;location;lat;lon;timestamp;pressure;altitude;pressure_sealevel;temperature;humidity
67430;BME280;54298;52.076;5.264;2023-01-28T00:01:04;102918.0;;;4.29;70.19
67430;BME280;54298;52.076;5.264;2023-01-28T00:02:41;102917.0;;;4.12;70.72
67430;BME280;54298;52.076;5.264;2023-01-28T00:04:17;102923.0;;;4.32;69.88
67430;BME280;54298;52.076;5.264;2023-01-28T00:07:38;102921.0;;;4.57;69.16
67430;BME280;54298;52.076;5.264;2023-01-28T00:09:14;102921.0;;;4.47;69.09
67430;BME280;54298;52.076;5.264;2023-01-28T00:10:50;102926.0;;;4.39;69.33
67430;BME280;54298;52.076;5.264;2023-01-28T00:14:04;102928.0;;;4.46;69.58
67430;BME280;54298;52.076;5.264;2023-01-28T00:15:40;102933.0;;;4.29;69.55
67430;BME280;54298;52.076;5.264;2023-01-28T00:17:17;102931.0;;;4.38;69.02
67430;BME280;54298;52.076;5.264;2023-01-28T00:18:53;102933.0;;;4.21;69.64
67430;BME280;54298;52.076;5.264;2023-01-28T00:22:07;102932.0;;;4.34;69.48
67430;BME280;54298;52.076;5.264;2023-01-28T00:23:48;102929.0;;;4.13;68.84
67430;BME280;54298;52.076;5.264;2023-01-28T00:25:26;102933.0;;;4.2;69.05
67430;BME280;54298;52.076;5.264;2023-01-28T00:28:39;102930.0;;;4.07;69.02
67430;BME280;54298;52.076;5.264;2023-01-28T00:30:16;102929.0;;;4.0;69.88
67430;BME280;54298;52.076;5.264;2023-01-28T00:31:53;102933.0;;;4.1;69.47
67430;BME280;54298;52.076;5.264;2023-01-28T00:33:30;102930.0;;;4.05;68.98
67430;BME280;54298;52.076;5.264;2023-01-28T00:36:44;102930.0;;;4.17;68.72
67430;BME280;54298;52.076;5.264;2023-01-28T00:38:20;102930.0;;;4.28;68.45
67430;BME280;54298;52.076;5.264;2023-01-28T00:39:57;102932.0;;;4.28;68.47
67430;BME280;54298;52.076;5.264;2023-01-28T00:43:09;102934.99999999999;;;4.2;68.72
67430;BME280;54298;52.076;5.264;2023-01-28T00:44:45;102933.99999999999;;;4.14;69.22
67430;BME280;54298;52.076;5.264;2023-01-28T00:46:22;102927.0;;;4.34;68.39
67430;BME280;54298;52.076;5.264;2023-01-28T00:49:35;102931.0;;;4.12;68.84
67430;BME280;54298;52.076;5.264;2023-01-28T00:51:13;102933.99999999999;;;4.26;68.83
67430;BME280;54298;52.076;5.264;2023-01-28T00:52:51;102933.99999999999;;;4.21;68.5
67430;BME280;54298;52.076;5.264;2023-01-28T00:54:27;102936.99999999999;;;4.03;68.83
67430;BME280;54298;52.076;5.264;2023-01-28T00:57:42;102933.0;;;3.99;69.11
67430;BME280;54298;52.076;5.264;2023-01-28T00:59:19;102941.00000000001;;;3.88;69.17
67430;BME280;54298;52.076;5.264;2023-01-28T01:00:55;102939.00000000001;;;4.16;68.47
67430;BME280;54298;52.076;5.264;2023-01-28T01:04:08;102931.0;;;4.1;68.69
67430;BME280;54298;52.076;5.264;2023-01-28T01:05:44;102933.0;;;4.16;68.27
67430;BME280;54298;52.076;5.264;2023-01-28T01:07:22;102925.0;;;4.09;68.58
67430;BME280;54298;52.076;5.264;2023-01-28T01:10:37;102922.0;;;3.8;69.22
67430;BME280;54298;52.076;5.264;2023-01-28T01:12:13;102920.0;;;4.08;68.77
67430;BME280;54298;52.076;5.264;2023-01-28T01:13:51;102922.0;;;4.09;68.72
67430;BME280;54298;52.076;5.264;2023-01-28T01:15:28;102917.0;;;4.13;68.56
67430;BME280;54298;52.076;5.264;2023-01-28T01:18:42;102918.0;;;4.03;68.97
67430;BME280;54298;52.076;5.264;2023-01-28T01:20:20;102924.0;;;4.1;69.0
67430;BME280;54298;52.076;5.264;2023-01-28T01:21:57;102926.0;;;4.16;68.52
67430;BME280;54298;52.076;5.264;2023-01-28T01:25:11;102925.0;;;4.04;68.81
67430;BME280;54298;52.076;5.264;2023-01-28T01:26:49;102931.0;;;3.98;68.67
67430;BME280;54298;52.076;5.264;2023-01-28T01:28:25;102931.0;;;3.8;69.0
67430;BME280;54298;52.076;5.264;2023-01-28T01:30:01;102925.0;;;4.03;68.33
67430;BME280;54298;52.076;5.264;2023-01-28T01:33:15;102922.0;;;4.01;67.73
67430;BME280;54298;52.076;5.264;2023-01-28T01:34:51;102924.0;;;4.01;68.05
67430;BME280;54298;52.076;5.264;2023-01-28T01:36:28;102926.0;;;4.03;68.13
67430;BME280;54298;52.076;5.264;2023-01-28T01:39:42;102930.0;;;4.07;67.81
67430;BME280;54298;52.076;5.264;2023-01-28T01:41:23;102932.0;;;3.94;68.33
67430;BME280;54298;52.076;5.264;2023-01-28T01:43:00;102938.00000000001;;;3.89;68.16
67430;BME280;54298;52.076;5.264;2023-01-28T01:44:55;102929.0;;;4.1;67.66
67430;BME280;54298;52.076;5.264;2023-01-28T01:48:20;102926.0;;;4.14;67.17
67430;BME280;54298;52.076;5.264;2023-01-28T01:50:02;102933.99999999999;;;4.01;67.3
67430;BME280;54298;52.076;5.264;2023-01-28T01:51:43;102931.0;;;4.08;66.94
67430;BME280;54298;52.076;5.264;2023-01-28T01:53:22;102940.00000000001;;;3.96;67.41
67430;BME280;54298;52.076;5.264;2023-01-28T01:55:05;102943.0;;;4.03;67.6
67430;BME280;54298;52.076;5.264;2023-01-28T01:58:28;102945.0;;;4.05;67.67
67430;BME280;54298;52.076;5.264;2023-01-28T02:00:09;102949.0;;;4.0;67.94
67430;BME280;54298;52.076;5.264;2023-01-28T02:01:46;102943.0;;;3.98;68.1
67430;BME280;54298;52.076;5.264;2023-01-28T02:05:08;102944.0;;;3.98;68.08
67430;BME280;54298;52.076;5.264;2023-01-28T02:06:45;102944.0;;;3.93;68.56
67430;BME280;54298;52.076;5.264;2023-01-28T02:08:22;102942.0;;;3.9;68.52
67430;BME280;54298;52.076;5.264;2023-01-28T02:09:58;102939.00000000001;;;4.05;68.42
67430;BME280;54298;52.076;5.264;2023-01-28T02:13:12;102932.0;;;3.99;67.92
67430;BME280;54298;52.076;5.264;2023-01-28T02:21:29;102942.0;;;3.91;68.19
67430;BME280;54298;52.076;5.264;2023-01-28T02:22:26;102942.0;;;3.91;68.19
67430;BME280;54298;52.076;5.264;2023-01-28T02:24:40;102936.99999999999;;;4.01;67.74
67430;BME280;54298;52.076;5.264;2023-01-28T02:27:25;102939.00000000001;;;4.1;67.97
67430;BME280;54298;52.076;5.264;2023-01-28T02:29:07;102939.00000000001;;;4.16;67.69
67430;BME280;54298;52.076;5.264;2023-01-28T02:30:57;102947.0;;;4.25;67.22
67430;BME280;54298;52.076;5.264;2023-01-28T02:34:29;102953.0;;;4.07;68.3
67430;BME280;54298;52.076;5.264;2023-01-28T02:36:16;102954.0;;;4.12;68.33
67430;BME280;54298;52.076;5.264;2023-01-28T02:38:04;102956.0;;;4.03;68.94
67430;BME280;54298;52.076;5.264;2023-01-28T02:39:51;102947.0;;;4.08;68.84
67430;BME280;54298;52.076;5.264;2023-01-28T02:41:32;102949.0;;;4.08;68.67
67430;BME280;54298;52.076;5.264;2023-01-28T02:43:13;102951.0;;;4.21;68.22
67430;BME280;54298;52.076;5.264;2023-01-28T02:47:59;102951.0;;;4.21;68.05
67430;BME280;54298;52.076;5.264;2023-01-28T02:49:39;102946.0;;;3.87;68.59
67430;BME280;54298;52.076;5.264;2023-01-28T02:53:45;102951.0;;;4.07;68.38
67430;BME280;54298;52.076;5.264;2023-01-28T02:55:53;102956.0;;;3.85;69.23
67430;BME280;54298;52.076;5.264;2023-01-28T02:59:34;102954.0;;;4.05;69.02
67430;BME280;54298;52.076;5.264;2023-01-28T03:01:22;102955.0;;;4.01;69.33
67430;BME280;54298;52.076;5.264;2023-01-28T03:03:08;102947.0;;;4.03;69.25
67430;BME280;54298;52.076;5.264;2023-01-28T03:04:55;102939.00000000001;;;3.99;69.59
67430;BME280;54298;52.076;5.264;2023-01-28T03:06:40;102934.99999999999;;;3.98;69.67
67430;BME280;54298;52.076;5.264;2023-01-28T03:09:26;102933.99999999999;;;3.84;70.16
67430;BME280;54298;52.076;5.264;2023-01-28T03:36:54;102940.00000000001;;;4.0;69.52
67430;BME280;54298;52.076;5.264;2023-01-28T03:38:33;102944.0;;;4.04;69.27
67430;BME280;54298;52.076;5.264;2023-01-28T03:40:18;102942.0;;;4.04;69.5
67430;BME280;54298;52.076;5.264;2023-01-28T03:41:58;102943.0;;;3.88;69.69
67430;BME280;54298;52.076;5.264;2023-01-28T03:45:13;102946.0;;;3.93;69.66
67430;BME280;54298;52.076;5.264;2023-01-28T03:46:50;102945.0;;;4.0;69.47
67430;BME280;54298;52.076;5.264;2023-01-28T03:48:27;102944.0;;;3.95;69.52
67430;BME280;54298;52.076;5.264;2023-01-28T03:50:06;102941.00000000001;;;3.98;69.22
67430;BME280;54298;52.076;5.264;2023-01-28T03:53:21;102942.0;;;3.99;68.42
67430;BME280;54298;52.076;5.264;2023-01-28T03:54:58;102944.0;;;3.95;67.97
67430;BME280;54298;52.076;5.264;2023-01-28T03:56:36;102947.0;;;3.97;67.81
67430;BME280;54298;52.076;5.264;2023-01-28T03:59:52;102943.0;;;4.07;67.99
67430;BME280;54298;52.076;5.264;2023-01-28T04:01:29;102949.0;;;4.07;67.73
67430;BME280;54298;52.076;5.264;2023-01-28T04:03:17;102948.0;;;4.07;67.85
67430;BME280;54298;52.076;5.264;2023-01-28T04:04:53;102946.0;;;3.91;69.13
67430;BME280;54298;52.076;5.264;2023-01-28T04:08:06;102944.0;;;3.89;68.58
67430;BME280;54298;52.076;5.264;2023-01-28T04:09:42;102949.0;;;3.78;68.72
67430;BME280;54298;52.076;5.264;2023-01-28T04:11:20;102951.0;;;3.9;68.19
67430;BME280;54298;52.076;5.264;2023-01-28T04:14:32;102951.0;;;3.98;68.02
67430;BME280;54298;52.076;5.264;2023-01-28T04:16:09;102952.0;;;3.9;68.16
67430;BME280;54298;52.076;5.264;2023-01-28T04:17:45;102957.0;;;3.75;68.48
67430;BME280;54298;52.076;5.264;2023-01-28T04:19:23;102958.0;;;3.8;69.16
67430;BME280;54298;52.076;5.264;2023-01-28T04:22:36;102966.00000000001;;;3.79;68.16
67430;BME280;54298;52.076;5.264;2023-01-28T04:24:12;102970.0;;;3.86;68.09
67430;BME280;54298;52.076;5.264;2023-01-28T04:25:49;102970.0;;;3.91;68.34
67430;BME280;54298;52.076;5.264;2023-01-28T04:29:02;102965.00000000001;;;3.84;68.0
67430;BME280;54298;52.076;5.264;2023-01-28T04:30:38;102968.0;;;3.88;68.2
67430;BME280;54298;52.076;5.264;2023-01-28T04:32:14;102979.0;;;3.77;68.72
67430;BME280;54298;52.076;5.264;2023-01-28T04:35:27;102986.99999999999;;;3.68;68.69
67430;BME280;54298;52.076;5.264;2023-01-28T04:37:03;102990.00000000001;;;3.62;68.63
67430;BME280;54298;52.076;5.264;2023-01-28T04:38:39;102980.0;;;3.75;68.03
67430;BME280;54298;52.076;5.264;2023-01-28T04:41:52;102983.0;;;3.65;68.25
67430;BME280;54298;52.076;5.264;2023-01-28T04:43:28;102992.0;;;3.7;68.52
67430;BME280;54298;52.076;5.264;2023-01-28T04:45:06;102993.0;;;3.6;68.75
67430;BME280;54298;52.076;5.264;2023-01-28T04:46:43;102983.99999999999;;;3.69;68.52
67430;BME280;54298;52.076;5.264;2023-01-28T04:49:55;102982.0;;;3.65;68.7
67430;BME280;54298;52.076;5.264;2023-01-28T04:51:31;102972.0;;;3.7;68.5
67430;BME280;54298;52.076;5.264;2023-01-28T04:53:08;102970.0;;;3.74;68.44
67430;BME280;54298;52.076;5.264;2023-01-28T04:56:22;102966.00000000001;;;3.7;68.47
67430;BME280;54298;52.076;5.264;2023-01-28T04:57:58;102975.0;;;3.69;69.11
67430;BME280;54298;52.076;5.264;2023-01-28T04:59:34;102970.0;;;3.64;68.74
67430;BME280;54298;52.076;5.264;2023-01-28T05:02:46;102969.0;;;3.63;69.19
67430;BME280;54298;52.076;5.264;2023-01-28T05:04:22;102967.0;;;3.68;68.3
67430;BME280;54298;52.076;5.264;2023-01-28T05:05:58;102964.00000000001;;;3.58;68.59
67430;BME280;54298;52.076;5.264;2023-01-28T05:07:35;102964.00000000001;;;3.65;68.59
67430;BME280;54298;52.076;5.264;2023-01-28T05:10:48;102961.99999999999;;;3.62;68.63
67430;BME280;54298;52.076;5.264;2023-01-28T05:12:24;102967.0;;;3.65;68.72
67430;BME280;54298;52.076;5.264;2023-01-28T05:14:01;102967.0;;;3.68;68.66
67430;BME280;54298;52.076;5.264;2023-01-28T05:17:13;102967.0;;;3.7;68.12
67430;BME280;54298;52.076;5.264;2023-01-28T05:18:50;102963.00000000001;;;3.64;67.73
67430;BME280;54298;52.076;5.264;2023-01-28T05:20:26;102965.00000000001;;;3.71;67.42
67430;BME280;54298;52.076;5.264;2023-01-28T05:23:38;102967.0;;;3.71;67.41
67430;BME280;54298;52.076;5.264;2023-01-28T05:25:14;102966.00000000001;;;3.75;66.84
67430;BME280;54298;52.076;5.264;2023-01-28T05:26:50;102964.00000000001;;;3.7;66.72
67430;BME280;54298;52.076;5.264;2023-01-28T05:28:27;102968.0;;;3.68;67.58
67430;BME280;54298;52.076;5.264;2023-01-28T05:31:43;102972.0;;;3.68;67.52
67430;BME280;54298;52.076;5.264;2023-01-28T05:33:19;102971.0;;;3.66;67.34
67430;BME280;54298;52.076;5.264;2023-01-28T05:34:55;102967.0;;;3.67;66.45
67430;BME280;54298;52.076;5.264;2023-01-28T05:38:07;102973.0;;;3.62;66.17
67430;BME280;54298;52.076;5.264;2023-01-28T05:39:43;102972.0;;;3.58;66.17
67430;BME280;54298;52.076;5.264;2023-01-28T05:41:20;102974.0;;;3.5;66.34
67430;BME280;54298;52.076;5.264;2023-01-28T05:44:32;102970.0;;;3.58;64.55
67430;BME280;54298;52.076;5.264;2023-01-28T05:46:08;102965.00000000001;;;3.69;64.61
67430;BME280;54298;52.076;5.264;2023-01-28T05:47:44;102970.0;;;3.64;64.41
67430;BME280;54298;52.076;5.264;2023-01-28T05:49:21;102965.00000000001;;;3.65;64.62
67430;BME280;54298;52.076;5.264;2023-01-28T05:52:35;102968.0;;;3.66;64.97
67430;BME280;54298;52.076;5.264;2023-01-28T05:54:11;102967.0;;;3.56;64.94
67430;BME280;54298;52.076;5.264;2023-01-28T05:55:47;102967.0;;;3.66;64.85
67430;BME280;54298;52.076;5.264;2023-01-28T05:59:00;102965.00000000001;;;3.6;65.48
67430;BME280;54298;52.076;5.264;2023-01-28T06:00:37;102971.0;;;3.61;64.75
67430;BME280;54298;52.076;5.264;2023-01-28T06:02:13;102968.0;;;3.57;64.42
67430;BME280;54298;52.076;5.264;2023-01-28T06:05:25;102965.00000000001;;;3.6;64.42
67430;BME280;54298;52.076;5.264;2023-01-28T06:07:02;102963.00000000001;;;3.61;64.44
67430;BME280;54298;52.076;5.264;2023-01-28T06:08:38;102965.00000000001;;;3.27;64.88
67430;BME280;54298;52.076;5.264;2023-01-28T06:10:17;102968.0;;;3.42;64.86
67430;BME280;54298;52.076;5.264;2023-01-28T06:13:29;102971.0;;;3.51;64.78
67430;BME280;54298;52.076;5.264;2023-01-28T06:15:06;102970.0;;;3.46;64.69
67430;BME280;54298;52.076;5.264;2023-01-28T06:16:43;102972.0;;;3.4;64.77
67430;BME280;54298;52.076;5.264;2023-01-28T06:19:55;102973.0;;;3.1;65.44
67430;BME280;54298;52.076;5.264;2023-01-28T06:21:31;102972.0;;;3.33;65.66
67430;BME280;54298;52.076;5.264;2023-01-28T06:23:08;102968.0;;;3.39;65.0
67430;BME280;54298;52.076;5.264;2023-01-28T06:26:21;102970.0;;;3.36;64.5
67430;BME280;54298;52.076;5.264;2023-01-28T06:27:57;102970.0;;;3.37;64.23
67430;BME280;54298;52.076;5.264;2023-01-28T06:29:34;102970.0;;;3.47;63.93
67430;BME280;54298;52.076;5.264;2023-01-28T06:31:11;102973.0;;;3.44;64.55
67430;BME280;54298;52.076;5.264;2023-01-28T06:34:29;102967.0;;;3.46;65.0
67430;BME280;54298;52.076;5.264;2023-01-28T06:36:06;102970.0;;;3.41;65.2
67430;BME280;54298;52.076;5.264;2023-01-28T06:37:44;102975.0;;;3.4;64.83
67430;BME280;54298;52.076;5.264;2023-01-28T06:40:57;102981.0;;;3.47;64.92
67430;BME280;54298;52.076;5.264;2023-01-28T06:42:33;102984.99999999999;;;3.43;65.36
67430;BME280;54298;52.076;5.264;2023-01-28T06:44:10;102994.0;;;3.28;64.87
67430;BME280;54298;52.076;5.264;2023-01-28T06:47:23;102991.00000000001;;;3.47;64.52
67430;BME280;54298;52.076;5.264;2023-01-28T06:48:59;102991.00000000001;;;3.41;64.56
67430;BME280;54298;52.076;5.264;2023-01-28T06:50:35;102992.0;;;3.42;64.89
67430;BME280;54298;52.076;5.264;2023-01-28T06:52:11;102995.0;;;3.13;64.6
67430;BME280;54298;52.076;5.264;2023-01-28T06:55:23;102991.00000000001;;;3.16;64.45
67430;BME280;54298;52.076;5.264;2023-01-28T06:57:00;102993.0;;;3.32;64.52
67430;BME280;54298;52.076;5.264;2023-01-28T06:58:36;102997.0;;;3.31;65.06
67430;BME280;54298;52.076;5.264;2023-01-28T07:01:51;103000.0;;;2.99;65.74
67430;BME280;54298;52.076;5.264;2023-01-28T07:03:27;103006.0;;;3.19;65.77
67430;BME280;54298;52.076;5.264;2023-01-28T07:05:04;103006.0;;;3.31;65.7
67430;BME280;54298;52.076;5.264;2023-01-28T07:08:16;103003.0;;;3.34;65.28
67430;BME280;54298;52.076;5.264;2023-01-28T07:09:53;103003.0;;;3.13;65.52
67430;BME280;54298;52.076;5.264;2023-01-28T07:11:29;103006.0;;;3.33;65.22
67430;BME280;54298;52.076;5.264;2023-01-28T07:13:05;103003.0;;;3.35;65.24
67430;BME280;54298;52.076;5.264;2023-01-28T07:16:17;102999.0;;;3.35;65.47
67430;BME280;54298;52.076;5.264;2023-01-28T07:17:53;102997.0;;;3.24;65.88
67430;BME280;54298;52.076;5.264;2023-01-28T07:19:30;103001.0;;;3.24;65.97
67430;BME280;54298;52.076;5.264;2023-01-28T07:22:43;103007.0;;;3.28;66.12
67430;BME280;54298;52.076;5.264;2023-01-28T07:24:20;103007.0;;;3.38;65.59
67430;BME280;54298;52.076;5.264;2023-01-28T07:26:00;103016.00000000001;;;3.27;65.41
67430;BME280;54298;52.076;5.264;2023-01-28T07:29:12;103016.00000000001;;;3.32;65.61
67430;BME280;54298;52.076;5.264;2023-01-28T07:30:49;103017.0;;;3.11;65.72
67430;BME280;54298;52.076;5.264;2023-01-28T07:32:26;103016.00000000001;;;3.11;65.63
67430;BME280;54298;52.076;5.264;2023-01-28T07:34:02;103016.00000000001;;;3.25;65.27
67430;BME280;54298;52.076;5.264;2023-01-28T07:37:15;103018.0;;;3.36;65.08
67430;BME280;54298;52.076;5.264;2023-01-28T07:38:51;103020.0;;;3.2;66.0
67430;BME280;54298;52.076;5.264;2023-01-28T07:40:27;103026.0;;;3.01;66.55
67430;BME280;54298;52.076;5.264;2023-01-28T07:43:40;103026.0;;;3.27;65.94
67430;BME280;54298;52.076;5.264;2023-01-28T07:45:17;103025.0;;;3.36;65.55
67430;BME280;54298;52.076;5.264;2023-01-28T07:46:53;103027.0;;;3.28;65.81
67430;BME280;54298;52.076;5.264;2023-01-28T07:50:08;103034.99999999999;;;3.27;66.09
67430;BME280;54298;52.076;5.264;2023-01-28T07:51:46;103038.00000000001;;;3.25;66.47
67430;BME280;54298;52.076;5.264;2023-01-28T07:53:22;103033.99999999999;;;3.24;66.11
67430;BME280;54298;52.076;5.264;2023-01-28T07:54:58;103034.99999999999;;;3.3;66.48
67430;BME280;54298;52.076;5.264;2023-01-28T07:58:11;103045.0;;;3.25;66.48
67430;BME280;54298;52.076;5.264;2023-01-28T07:59:48;103040.00000000001;;;3.38;65.95
67430;BME280;54298;52.076;5.264;2023-01-28T08:01:24;103034.99999999999;;;3.35;65.67
67430;BME280;54298;52.076;5.264;2023-01-28T08:04:40;103038.00000000001;;;3.31;66.0
67430;BME280;54298;52.076;5.264;2023-01-28T08:06:17;103038.00000000001;;;3.33;66.36
67430;BME280;54298;52.076;5.264;2023-01-28T08:07:53;103046.0;;;3.25;66.19
67430;BME280;54298;52.076;5.264;2023-01-28T08:09:29;103055.0;;;3.27;66.45
67430;BME280;54298;52.076;5.264;2023-01-28T08:12:50;103042.0;;;3.23;66.24
67430;BME280;54298;52.076;5.264;2023-01-28T08:14:26;103044.0;;;3.08;66.45
67430;BME280;54298;52.076;5.264;2023-01-28T08:16:04;103048.0;;;3.26;66.48
67430;BME280;54298;52.076;5.264;2023-01-28T08:19:17;103047.0;;;3.17;66.97
67430;BME280;54298;52.076;5.264;2023-01-28T08:20:54;103049.0;;;3.24;66.69
67430;BME280;54298;52.076;5.264;2023-01-28T08:22:31;103050.0;;;3.24;66.81
67430;BME280;54298;52.076;5.264;2023-01-28T08:24:07;103054.0;;;3.19;67.66
67430;BME280;54298;52.076;5.264;2023-01-28T08:27:20;103058.99999999999;;;3.27;67.52
67430;BME280;54298;52.076;5.264;2023-01-28T08:28:56;103057.0;;;3.25;67.45
67430;BME280;54298;52.076;5.264;2023-01-28T08:30:33;103057.0;;;3.17;67.39
67430;BME280;54298;52.076;5.264;2023-01-28T08:33:46;103056.0;;;3.23;67.41
67430;BME280;54298;52.076;5.264;2023-01-28T08:35:22;103057.0;;;3.27;67.17
67430;BME280;54298;52.076;5.264;2023-01-28T08:36:58;103059.99999999999;;;3.31;67.1
67430;BME280;54298;52.076;5.264;2023-01-28T08:41:48;103061.99999999999;;;3.29;67.48
67430;BME280;54298;52.076;5.264;2023-01-28T08:43:24;103063.00000000001;;;3.45;67.31
67430;BME280;54298;52.076;5.264;2023-01-28T08:45:01;103067.0;;;3.3;67.89
67430;BME280;54298;52.076;5.264;2023-01-28T08:48:15;103072.0;;;3.3;67.98
67430;BME280;54298;52.076;5.264;2023-01-28T08:49:52;103064.00000000001;;;3.4;67.89
67430;BME280;54298;52.076;5.264;2023-01-28T08:51:28;103072.0;;;3.5;67.05
67430;BME280;54298;52.076;5.264;2023-01-28T08:54:45;103075.0;;;3.64;66.37
67430;BME280;54298;52.076;5.264;2023-01-28T08:56:21;103080.0;;;3.58;65.77
67430;BME280;54298;52.076;5.264;2023-01-28T08:58:00;103086.99999999999;;;3.67;65.73
67430;BME280;54298;52.076;5.264;2023-01-28T09:01:20;103084.99999999999;;;3.68;66.25
67430;BME280;54298;52.076;5.264;2023-01-28T09:02:56;103092.0;;;3.66;66.1
67430;BME280;54298;52.076;5.264;2023-01-28T09:04:32;103084.99999999999;;;3.66;66.16
67430;BME280;54298;52.076;5.264;2023-01-28T09:06:08;103088.00000000001;;;3.56;66.13
67430;BME280;54298;52.076;5.264;2023-01-28T09:09:21;103091.00000000001;;;3.66;66.02
67430;BME280;54298;52.076;5.264;2023-01-28T09:10:58;103092.0;;;3.7;66.03
67430;BME280;54298;52.076;5.264;2023-01-28T09:12:35;103089.00000000001;;;3.7;65.53
67430;BME280;54298;52.076;5.264;2023-01-28T09:15:50;103082.0;;;3.79;64.94
67430;BME280;54298;52.076;5.264;2023-01-28T09:17:26;103088.00000000001;;;3.75;65.64
67430;BME280;54298;52.076;5.264;2023-01-28T09:19:02;103092.0;;;3.91;64.75
67430;BME280;54298;52.076;5.264;2023-01-28T09:20:38;103098.0;;;3.91;65.09
67430;BME280;54298;52.076;5.264;2023-01-28T09:23:54;103096.0;;;4.08;64.24
67430;BME280;54298;52.076;5.264;2023-01-28T09:25:31;103103.0;;;4.09;63.68
67430;BME280;54298;52.076;5.264;2023-01-28T09:27:08;103099.0;;;4.09;64.13
67430;BME280;54298;52.076;5.264;2023-01-28T09:30:23;103100.0;;;4.07;63.88
67430;BME280;54298;52.076;5.264;2023-01-28T09:32:00;103096.0;;;3.96;63.75
67430;BME280;54298;52.076;5.264;2023-01-28T09:33:38;103106.0;;;3.86;64.25
67430;BME280;54298;52.076;5.264;2023-01-28T09:35:17;103104.0;;;3.67;65.06
67430;BME280;54298;52.076;5.264;2023-01-28T09:38:30;103105.0;;;3.47;66.98
67430;BME280;54298;52.076;5.264;2023-01-28T09:40:11;103101.0;;;3.48;67.09
67430;BME280;54298;52.076;5.264;2023-01-28T09:42:01;103109.99999999999;;;3.51;66.52
67430;BME280;54298;52.076;5.264;2023-01-28T09:44:03;103116.00000000001;;;3.63;65.55
67430;BME280;54298;52.076;5.264;2023-01-28T09:45:42;103117.0;;;3.67;65.67
67430;BME280;54298;52.076;5.264;2023-01-28T09:49:12;103117.0;;;3.47;66.38
67430;BME280;54298;52.076;5.264;2023-01-28T09:50:53;103108.0;;;3.67;65.47
67430;BME280;54298;52.076;5.264;2023-01-28T09:52:33;103109.99999999999;;;3.63;65.58
67430;BME280;54298;52.076;5.264;2023-01-28T09:54:17;103108.0;;;3.6;65.52
67430;BME280;54298;52.076;5.264;2023-01-28T09:57:44;103109.99999999999;;;3.71;65.53
67430;BME280;54298;52.076;5.264;2023-01-28T09:59:24;103108.0;;;3.67;65.58
67430;BME280;54298;52.076;5.264;2023-01-28T10:01:17;103107.0;;;3.72;64.73
67430;BME280;54298;52.076;5.264;2023-01-28T10:03:25;103103.0;;;3.69;64.66
67430;BME280;54298;52.076;5.264;2023-01-28T10:05:16;103117.0;;;3.62;64.42
67430;BME280;54298;52.076;5.264;2023-01-28T10:07:04;103126.0;;;3.78;64.09
67430;BME280;54298;52.076;5.264;2023-01-28T10:09:13;103128.0;;;3.63;64.35
67430;BME280;54298;52.076;5.264;2023-01-28T10:11:15;103120.0;;;3.86;64.09
67430;BME280;54298;52.076;5.264;2023-01-28T10:13:05;103121.0;;;3.82;64.12
67430;BME280;54298;52.076;5.264;2023-01-28T10:16:43;103127.0;;;3.8;64.44
67430;BME280;54298;52.076;5.264;2023-01-28T10:18:30;103129.0;;;3.94;63.61
67430;BME280;54298;52.076;5.264;2023-01-28T10:20:17;103117.0;;;3.98;63.62
67430;BME280;54298;52.076;5.264;2023-01-28T10:22:00;103120.0;;;4.03;63.33
67430;BME280;54298;52.076;5.264;2023-01-28T10:23:45;103123.0;;;4.01;63.51
67430;BME280;54298;52.076;5.264;2023-01-28T10:25:31;103117.0;;;4.16;63.35
67430;BME280;54298;52.076;5.264;2023-01-28T10:28:54;103113.00000000001;;;4.25;63.05
67430;BME280;54298;52.076;5.264;2023-01-28T10:30:44;103108.0;;;4.21;62.26
67430;BME280;54298;52.076;5.264;2023-01-28T10:32:27;103101.0;;;4.24;61.89
67430;BME280;54298;52.076;5.264;2023-01-28T10:34:04;103103.0;;;4.03;62.35
67430;BME280;54298;52.076;5.264;2023-01-28T10:37:18;103099.0;;;4.28;61.92
67430;BME280;54298;52.076;5.264;2023-01-28T10:38:55;103103.0;;;4.38;62.2
67430;BME280;54298;52.076;5.264;2023-01-28T10:40:31;103091.00000000001;;;4.37;61.65
67430;BME280;54298;52.076;5.264;2023-01-28T10:44:02;103094.0;;;4.46;61.67
67430;BME280;54298;52.076;5.264;2023-01-28T10:45:41;103103.0;;;4.55;61.19
67430;BME280;54298;52.076;5.264;2023-01-28T10:47:33;103100.0;;;4.51;60.61
67430;BME280;54298;52.076;5.264;2023-01-28T10:49:15;103092.0;;;4.53;61.48
67430;BME280;54298;52.076;5.264;2023-01-28T10:50:55;103091.00000000001;;;4.68;60.71
67430;BME280;54298;52.076;5.264;2023-01-28T10:54:25;103083.99999999999;;;4.64;61.03
67430;BME280;54298;52.076;5.264;2023-01-28T10:56:04;103081.0;;;4.74;60.32
67430;BME280;54298;52.076;5.264;2023-01-28T10:57:43;103074.0;;;4.71;60.24
67430;BME280;54298;52.076;5.264;2023-01-28T10:59:24;103082.0;;;4.79;59.78
67430;BME280;54298;52.076;5.264;2023-01-28T11:01:03;103080.0;;;4.66;59.46
67430;BME280;54298;52.076;5.264;2023-01-28T11:04:22;103078.0;;;4.72;59.5
67430;BME280;54298;52.076;5.264;2023-01-28T11:06:00;103064.00000000001;;;4.61;59.78
67430;BME280;54298;52.076;5.264;2023-01-28T11:07:37;103048.0;;;4.8;59.71
67430;BME280;54298;52.076;5.264;2023-01-28T11:10:59;103045.0;;;4.8;59.61
67430;BME280;54298;52.076;5.264;2023-01-28T11:12:36;103040.00000000001;;;4.68;59.79
67430;BME280;54298;52.076;5.264;2023-01-28T11:14:19;103029.0;;;4.76;59.35
67430;BME280;54298;52.076;5.264;2023-01-28T11:16:00;103027.0;;;4.99;59.55
67430;BME280;54298;52.076;5.264;2023-01-28T11:19:34;103033.0;;;4.91;59.82
67430;BME280;54298;52.076;5.264;2023-01-28T11:21:15;103029.0;;;4.99;59.76
67430;BME280;54298;52.076;5.264;2023-01-28T11:22:55;103017.0;;;5.08;59.62
67430;BME280;54298;52.076;5.264;2023-01-28T11:24:33;103003.0;;;5.15;59.83
67430;BME280;54298;52.076;5.264;2023-01-28T11:26:15;102993.0;;;5.12;59.64
67430;BME280;54298;52.076;5.264;2023-01-28T11:29:31;102989.00000000001;;;5.15;58.99
67430;BME280;54298;52.076;5.264;2023-01-28T11:31:11;102997.0;;;4.8;59.45